createdAt,value
2019-05-28T00:00:03.085Z,98540.38
2019-05-28T00:02:41.248Z,98544.59
2019-05-28T00:05:18.039Z,98546.09
2019-05-28T00:07:54.169Z,98540.56
2019-05-28T00:10:30.125Z,98532.14
2019-05-28T00:13:06.490Z,98534.51
2019-05-28T00:15:43.080Z,98530.30
2019-05-28T00:18:19.124Z,98527.94
2019-05-28T00:20:55.169Z,98528.95
2019-05-28T00:23:31.336Z,98523.73
2019-05-28T00:26:07.503Z,98517.20
2019-05-28T00:28:43.655Z,98513.16
2019-05-28T00:31:19.614Z,98506.45
2019-05-28T00:33:55.872Z,98503.25
2019-05-28T00:36:32.032Z,98500.06
2019-05-28T00:39:08.604Z,98490.66
2019-05-28T00:41:44.675Z,98492.00
2019-05-28T00:44:20.723Z,98488.48
2019-05-28T00:46:57.189Z,98483.62
2019-05-28T00:49:34.186Z,98476.55
2019-05-28T00:52:10.225Z,98468.98
2019-05-28T00:54:46.289Z,98465.98
2019-05-28T00:57:23.264Z,98467.98
2019-05-28T00:59:59.781Z,98462.94
2019-05-28T01:02:35.796Z,98466.61
2019-05-28T01:05:12.789Z,98471.80
2019-05-28T01:07:48.840Z,98463.42
2019-05-28T01:10:24.794Z,98462.23
2019-05-28T01:13:00.850Z,98456.86
2019-05-28T01:15:37.115Z,98460.20
2019-05-28T01:18:13.172Z,98461.06
2019-05-28T01:20:49.138Z,98453.00
2019-05-28T01:23:25.185Z,98450.14
2019-05-28T01:26:01.359Z,98448.98
2019-05-28T01:28:37.432Z,98439.40
2019-05-28T01:31:13.376Z,98435.73
2019-05-28T01:33:49.432Z,98435.55
2019-05-28T01:36:25.792Z,98430.00
2019-05-28T01:39:02.168Z,98431.52
2019-05-28T01:41:39.556Z,98424.98
2019-05-28T01:44:15.646Z,98422.45
2019-05-28T01:46:52.076Z,98422.95
2019-05-28T01:49:28.028Z,98414.37
2019-05-28T01:52:05.122Z,98407.84
2019-05-28T01:54:41.092Z,98400.59
2019-05-28T01:57:17.237Z,98410.85
2019-05-28T01:59:53.283Z,98403.45
2019-05-28T02:02:29.259Z,98400.27
2019-05-28T02:05:10.400Z,98403.13
2019-05-28T02:07:46.431Z,98399.09
2019-05-28T02:10:22.461Z,98393.22
2019-05-28T02:12:58.396Z,98393.75
2019-05-28T02:15:34.456Z,98386.68
2019-05-28T02:18:10.619Z,98394.92
2019-05-28T02:20:46.520Z,98390.70
2019-05-28T02:23:22.631Z,98392.71
2019-05-28T02:25:58.688Z,98388.02
2019-05-28T02:28:34.751Z,98389.55
2019-05-28T02:31:10.907Z,98376.59
2019-05-28T02:33:47.134Z,98380.30
2019-05-28T02:36:24.985Z,98376.42
2019-05-28T02:39:01.434Z,98387.34
2019-05-28T02:41:39.231Z,98384.30
2019-05-28T02:44:15.411Z,98391.38
2019-05-28T02:46:51.473Z,98390.53
2019-05-28T02:49:27.410Z,98389.34
2019-05-28T02:52:04.615Z,98386.00
2019-05-28T02:54:40.878Z,98387.49
2019-05-28T02:57:18.274Z,98381.14
2019-05-28T02:59:55.843Z,98384.48
2019-05-28T03:02:33.870Z,98389.67
2019-05-28T03:05:10.126Z,98380.27
2019-05-28T03:07:48.495Z,98393.37
2019-05-28T03:11:00.194Z,98379.27
2019-05-28T03:13:13.971Z,98379.92
2019-05-28T03:15:52.115Z,98372.55
2019-05-28T03:18:29.257Z,98381.77
2019-05-28T03:21:06.439Z,98380.61
2019-05-28T03:23:44.252Z,98380.25
2019-05-28T03:26:23.452Z,98378.73
2019-05-28T03:28:58.398Z,98381.27
2019-05-28T03:31:34.361Z,98384.94
2019-05-28T03:34:10.311Z,98382.79
2019-05-28T03:36:47.566Z,98377.59
2019-05-28T03:39:25.065Z,98373.39
2019-05-28T03:42:01.048Z,98365.33
2019-05-28T03:44:37.035Z,98358.95
2019-05-28T03:47:13.272Z,98354.59
2019-05-28T03:49:49.327Z,98349.22
2019-05-28T03:52:25.594Z,98359.66
2019-05-28T03:55:01.653Z,98357.15
2019-05-28T03:57:37.719Z,98353.64
2019-05-28T04:00:14.078Z,98354.31
2019-05-28T04:02:50.034Z,98359.53
2019-05-28T04:05:26.190Z,98359.53
2019-05-28T04:08:02.295Z,98361.89
2019-05-28T04:10:38.319Z,98357.94
2019-05-28T04:13:14.301Z,98358.08
2019-05-28T04:15:50.343Z,98355.64
2019-05-28T04:18:26.749Z,98348.86
2019-05-28T04:21:02.754Z,98347.77
2019-05-28T04:23:41.630Z,98345.90
2019-05-28T04:26:16.415Z,98352.67
2019-05-28T04:28:52.340Z,98358.12
2019-05-28T04:31:28.215Z,98352.86
2019-05-28T04:34:04.170Z,98354.08
2019-05-28T04:36:40.187Z,98347.47
2019-05-28T04:39:16.273Z,98354.44
2019-05-28T04:41:52.294Z,98360.05
2019-05-28T04:44:28.300Z,98352.67
2019-05-28T04:47:07.695Z,98348.97
2019-05-28T04:49:41.870Z,98331.98
2019-05-28T04:52:18.005Z,98345.77
2019-05-28T04:54:53.966Z,98350.43
2019-05-28T04:57:29.872Z,98345.47
2019-05-28T05:00:09.523Z,98348.70
2019-05-28T05:02:58.617Z,98351.55
2019-05-28T05:05:23.030Z,98346.85
2019-05-28T05:07:59.082Z,98346.97
2019-05-28T05:10:35.060Z,98340.20
2019-05-28T05:13:11.127Z,98344.48
2019-05-28T05:15:47.397Z,98341.80
2019-05-28T05:18:23.388Z,98342.87
2019-05-28T05:20:59.323Z,98346.02
2019-05-28T05:23:35.298Z,98346.00
2019-05-28T05:26:11.174Z,98348.97
2019-05-28T05:28:46.998Z,98342.48
2019-05-28T05:31:23.000Z,98343.38
2019-05-28T05:33:58.974Z,98338.75
2019-05-28T05:36:34.900Z,98338.85
2019-05-28T05:39:10.959Z,98338.41
2019-05-28T05:41:46.984Z,98322.05
2019-05-28T05:44:22.853Z,98327.33
2019-05-28T05:46:58.857Z,98328.77
2019-05-28T05:49:34.801Z,98322.33
2019-05-28T05:52:10.962Z,98323.16
2019-05-28T05:54:47.115Z,98314.93
2019-05-28T05:57:23.111Z,98318.41
2019-05-28T05:59:58.995Z,98318.58
2019-05-28T06:02:35.085Z,98314.91
2019-05-28T06:05:11.140Z,98316.96
2019-05-28T06:07:47.253Z,98319.75
2019-05-28T06:10:24.065Z,98316.45
2019-05-28T06:13:00.141Z,98324.11
2019-05-28T06:15:36.148Z,98323.64
2019-05-28T06:18:12.117Z,98320.58
2019-05-28T06:20:48.063Z,98318.45
2019-05-28T06:23:24.172Z,98320.02
2019-05-28T06:26:00.122Z,98315.10
2019-05-28T06:28:36.129Z,98310.22
2019-05-28T06:31:12.087Z,98314.75
2019-05-28T06:33:56.710Z,98312.23
2019-05-28T06:36:25.694Z,98307.14
2019-05-28T06:39:01.610Z,98309.63
2019-05-28T06:41:38.948Z,98302.28
2019-05-28T06:44:14.898Z,98298.08
2019-05-28T06:46:50.855Z,98301.22
2019-05-28T06:49:28.140Z,98300.08
2019-05-28T06:52:04.103Z,98307.38
2019-05-28T06:54:40.154Z,98310.94
2019-05-28T06:57:22.689Z,98313.19
2019-05-28T06:59:54.130Z,98302.88
2019-05-28T07:02:30.159Z,98299.48
2019-05-28T07:05:07.754Z,98293.00
2019-05-28T07:07:43.616Z,98298.48
2019-05-28T07:10:19.774Z,98288.47
2019-05-28T07:12:55.725Z,98297.41
2019-05-28T07:15:31.680Z,98301.36
2019-05-28T07:18:07.757Z,98302.14
2019-05-28T07:20:43.883Z,98294.36
2019-05-28T07:23:20.142Z,98291.13
2019-05-28T07:25:56.325Z,98284.61
2019-05-28T07:28:32.319Z,98281.34
2019-05-28T07:31:08.716Z,98272.65
2019-05-28T07:33:44.557Z,98281.45
2019-05-28T07:36:20.517Z,98270.31
2019-05-28T07:38:56.437Z,98273.55
2019-05-28T07:41:32.414Z,98264.67
2019-05-28T07:44:08.409Z,98269.44
2019-05-28T07:46:44.306Z,98268.86
2019-05-28T07:49:20.277Z,98265.70
2019-05-28T07:51:56.516Z,98261.91
2019-05-28T07:54:32.370Z,98265.70
2019-05-28T07:57:08.746Z,98260.66
2019-05-28T07:59:44.991Z,98273.95
2019-05-28T08:02:20.999Z,98265.58
2019-05-28T08:04:56.860Z,98272.06
2019-05-28T08:07:32.781Z,98268.39
2019-05-28T08:10:09.549Z,98272.69
2019-05-28T08:12:45.510Z,98268.11
2019-05-28T08:15:21.942Z,98268.17
2019-05-28T08:17:57.922Z,98272.80
2019-05-28T08:20:34.100Z,98275.51
2019-05-28T08:23:10.060Z,98281.36
2019-05-28T08:25:48.030Z,98279.99
2019-05-28T08:28:24.659Z,98277.72
2019-05-28T08:31:14.878Z,98283.06
2019-05-28T08:33:38.553Z,98277.75
2019-05-28T08:36:14.581Z,98276.95
2019-05-28T08:38:50.523Z,98273.39
2019-05-28T08:41:26.435Z,98270.27
2019-05-28T08:44:02.413Z,98270.87
2019-05-28T08:46:38.635Z,98270.70
2019-05-28T08:49:14.558Z,98269.26
2019-05-28T08:51:50.475Z,98270.45
2019-05-28T08:54:26.368Z,98268.70
2019-05-28T08:57:02.394Z,98265.57
2019-05-28T08:59:38.429Z,98266.58
2019-05-28T09:02:26.983Z,98256.16
2019-05-28T09:04:52.206Z,98265.22
2019-05-28T09:07:28.225Z,98267.11
2019-05-28T09:10:06.718Z,98264.08
2019-05-28T09:12:43.741Z,98267.19
2019-05-28T09:15:19.576Z,98265.20
2019-05-28T09:17:55.731Z,98265.73
2019-05-28T09:20:31.626Z,98271.45
2019-05-28T09:23:07.890Z,98269.56
2019-05-28T09:25:44.469Z,98270.92
2019-05-28T09:28:30.090Z,98279.08
2019-05-28T09:30:58.330Z,98278.24
2019-05-28T09:33:34.480Z,98282.97
2019-05-28T09:36:10.758Z,98283.27
2019-05-28T09:38:47.006Z,98280.84
2019-05-28T09:41:23.072Z,98274.27
2019-05-28T09:43:59.168Z,98273.72
2019-05-28T09:46:35.392Z,98273.69
2019-05-28T09:49:11.361Z,98267.41
2019-05-28T09:51:47.495Z,98265.95
2019-05-28T09:54:23.583Z,98267.75
2019-05-28T09:56:59.563Z,98269.07
2019-05-28T09:59:41.631Z,98268.52
2019-05-28T10:02:14.889Z,98263.50
2019-05-28T10:04:51.327Z,98260.05
2019-05-28T10:07:27.659Z,98269.07
2019-05-28T10:10:03.809Z,98263.23
2019-05-28T10:12:40.071Z,98265.76
2019-05-28T10:15:18.897Z,98269.11
2019-05-28T10:17:54.855Z,98260.90
2019-05-28T10:20:31.384Z,98261.13
2019-05-28T10:23:07.492Z,98269.74
2019-05-28T10:25:43.542Z,98269.38
2019-05-28T10:28:19.715Z,98270.31
2019-05-28T10:30:56.232Z,98274.09
2019-05-28T10:33:32.341Z,98277.17
2019-05-28T10:36:08.297Z,98284.55
2019-05-28T10:38:44.257Z,98286.77
2019-05-28T10:41:20.447Z,98291.19
2019-05-28T10:43:56.666Z,98285.64
2019-05-28T10:46:32.938Z,98289.98
2019-05-28T10:49:08.902Z,98291.84
2019-05-28T10:51:44.864Z,98302.55
2019-05-28T10:54:21.321Z,98300.98
2019-05-28T10:56:57.388Z,98302.28
2019-05-28T10:59:33.637Z,98295.28
2019-05-28T11:02:09.597Z,98312.91
2019-05-28T11:04:45.570Z,98302.69
2019-05-28T11:07:21.816Z,98303.34
2019-05-28T11:09:57.803Z,98298.78
2019-05-28T11:12:34.354Z,98289.69
2019-05-28T11:15:11.973Z,98287.63
2019-05-28T11:17:48.150Z,98285.96
2019-05-28T11:20:24.847Z,98278.24
2019-05-28T11:23:01.051Z,98275.69
2019-05-28T11:25:37.191Z,98274.72
2019-05-28T11:28:13.159Z,98269.12
2019-05-28T11:30:49.479Z,98263.72
2019-05-28T11:33:26.604Z,98265.45
2019-05-28T11:36:02.568Z,98256.98
2019-05-28T11:38:38.516Z,98254.97
2019-05-28T11:41:14.581Z,98259.39
2019-05-28T11:43:51.975Z,98262.15
2019-05-28T11:46:28.034Z,98263.03
2019-05-28T11:49:04.191Z,98269.31
2019-05-28T11:51:40.248Z,98268.86
2019-05-28T11:54:16.331Z,98267.91
2019-05-28T11:56:52.669Z,98266.27
2019-05-28T11:59:29.113Z,98270.66
2019-05-28T12:02:05.957Z,98269.48
2019-05-28T12:04:43.769Z,98267.80
2019-05-28T12:07:26.082Z,98273.17
2019-05-28T12:09:57.665Z,98272.66
2019-05-28T12:12:35.377Z,98280.41
2019-05-28T12:15:12.744Z,98278.23
2019-05-28T12:17:48.828Z,98282.28
2019-05-28T12:20:25.832Z,98286.69
2019-05-28T12:23:10.918Z,98290.41
2019-05-28T12:25:39.865Z,98282.64
2019-05-28T12:28:15.814Z,98284.55
2019-05-28T12:30:51.776Z,98284.30
2019-05-28T12:33:28.257Z,98278.09
2019-05-28T12:36:04.904Z,98274.73
2019-05-28T12:38:40.975Z,98275.55
2019-05-28T12:41:16.944Z,98276.38
2019-05-28T12:43:52.986Z,98274.05
2019-05-28T12:46:28.941Z,98277.87
2019-05-28T12:49:05.202Z,98273.38
2019-05-28T12:51:41.172Z,98268.53
2019-05-28T12:54:17.334Z,98267.70
2019-05-28T12:56:53.395Z,98262.53
2019-05-28T12:59:29.468Z,98263.37
2019-05-28T13:02:05.817Z,98255.50
2019-05-28T13:04:41.875Z,98257.05
2019-05-28T13:10:44.377Z,98258.85
2019-05-28T13:13:20.336Z,98252.52
2019-05-28T13:15:56.286Z,98254.61
2019-05-28T13:18:32.335Z,98250.97
2019-05-28T13:21:08.396Z,98245.13
2019-05-28T13:23:44.701Z,98243.98
2019-05-28T13:26:20.724Z,98238.10
2019-05-28T13:28:58.216Z,98231.78
2019-05-28T13:31:34.572Z,98231.61
2019-05-28T13:34:11.773Z,98233.82
2019-05-28T13:36:49.062Z,98225.97
2019-05-28T13:39:25.020Z,98230.48
2019-05-28T13:42:01.177Z,98235.02
2019-05-28T13:44:38.359Z,98230.88
2019-05-28T13:47:32.260Z,98230.38
2019-05-28T13:49:52.013Z,98231.42
2019-05-28T13:52:28.075Z,98237.14
2019-05-28T13:55:05.567Z,98232.56
2019-05-28T13:57:41.919Z,98223.66
2019-05-28T14:00:19.332Z,98217.66
2019-05-28T14:02:55.474Z,98224.28
2019-05-28T14:05:31.641Z,98224.33
2019-05-28T14:08:07.695Z,98225.42
2019-05-28T14:10:44.061Z,98222.86
2019-05-28T14:13:21.269Z,98220.13
2019-05-28T14:15:57.603Z,98218.50
2019-05-28T14:18:33.858Z,98220.44
2019-05-28T14:21:09.826Z,98222.48
2019-05-28T14:23:45.799Z,98223.86
2019-05-28T14:26:21.749Z,98219.23
2019-05-28T14:28:57.796Z,98228.02
2019-05-28T14:31:33.895Z,98228.41
2019-05-28T14:34:10.087Z,98238.08
2019-05-28T14:37:17.795Z,98232.60
2019-05-28T14:40:01.465Z,98238.27
2019-05-28T14:42:40.123Z,98237.57
2019-05-28T14:45:20.291Z,98238.27
2019-05-28T14:48:02.411Z,98243.41
2019-05-28T14:50:38.817Z,98245.28
2019-05-28T14:53:14.874Z,98248.89
2019-05-28T14:55:51.027Z,98258.07
2019-05-28T14:58:27.169Z,98250.33
2019-05-28T15:01:03.097Z,98256.74
2019-05-28T15:03:39.212Z,98265.38
2019-05-28T15:06:15.277Z,98272.58
2019-05-28T15:08:51.256Z,98274.83
2019-05-28T15:11:27.242Z,98276.41
2019-05-28T15:14:03.229Z,98270.22
2019-05-28T15:16:39.185Z,98274.22
2019-05-28T15:19:15.157Z,98275.45
2019-05-28T15:21:51.117Z,98286.50
2019-05-28T15:24:27.282Z,98282.00
2019-05-28T15:27:03.405Z,98285.47
2019-05-28T15:29:40.594Z,98284.37
2019-05-28T15:32:16.476Z,98280.55
2019-05-28T15:34:52.363Z,98280.77
2019-05-28T15:37:28.324Z,98281.13
2019-05-28T15:40:10.020Z,98276.28
2019-05-28T15:42:45.278Z,98274.78
2019-05-28T15:45:21.099Z,98274.14
2019-05-28T15:47:57.128Z,98274.58
2019-05-28T15:50:33.113Z,98269.63
2019-05-28T15:53:09.116Z,98263.24
2019-05-28T15:55:45.033Z,98258.37
2019-05-28T15:58:20.975Z,98251.34
2019-05-28T16:00:56.997Z,98252.83
2019-05-28T16:03:33.046Z,98252.85
2019-05-28T16:06:09.033Z,98259.05
2019-05-28T16:08:45.074Z,98262.95
2019-05-28T16:11:21.241Z,98251.97
2019-05-28T16:13:57.467Z,98255.41
2019-05-28T16:16:34.689Z,98261.70
2019-05-28T16:19:10.850Z,98262.00
2019-05-28T16:21:46.917Z,98265.16
2019-05-28T16:24:22.957Z,98270.95
2019-05-28T16:26:59.343Z,98270.50
2019-05-28T16:29:35.257Z,98270.03
2019-05-28T16:32:11.288Z,98272.05
2019-05-28T16:34:47.153Z,98276.19
2019-05-28T16:37:23.160Z,98282.43
2019-05-28T16:40:14.009Z,98284.25
2019-05-28T16:42:37.291Z,98288.31
2019-05-28T16:45:15.057Z,98291.84
2019-05-28T16:47:51.266Z,98293.00
2019-05-28T16:50:27.224Z,98295.02
2019-05-28T16:53:03.370Z,98301.09
2019-05-28T16:55:41.932Z,98306.66
2019-05-28T16:58:17.092Z,98313.24
2019-05-28T17:00:53.019Z,98319.14
2019-05-28T17:03:29.063Z,98324.85
2019-05-28T17:06:05.210Z,98324.70
2019-05-28T17:08:42.192Z,98324.17
2019-05-28T17:11:18.200Z,98325.36
2019-05-28T17:13:54.098Z,98326.20
2019-05-28T17:16:30.103Z,98327.66
2019-05-28T17:19:05.992Z,98339.25
2019-05-28T17:21:42.070Z,98347.09
2019-05-28T17:24:18.656Z,98340.53
2019-05-28T17:26:54.741Z,98347.87
2019-05-28T17:29:30.891Z,98345.31
2019-05-28T17:32:06.947Z,98345.31
2019-05-28T17:34:43.343Z,98356.17
2019-05-28T17:37:19.260Z,98360.64
2019-05-28T17:39:55.173Z,98370.00
2019-05-28T17:42:31.617Z,98369.49
2019-05-28T17:45:08.059Z,98388.70
2019-05-28T17:47:44.502Z,98380.55
2019-05-28T17:50:20.678Z,98390.84
2019-05-28T17:52:56.683Z,98393.53
2019-05-28T17:55:32.664Z,98396.16
2019-05-28T17:58:08.549Z,98401.34
2019-05-28T18:00:44.619Z,98396.30
2019-05-28T18:03:20.830Z,98393.72
2019-05-28T18:05:56.950Z,98405.56
2019-05-28T18:08:33.075Z,98408.92
2019-05-28T18:11:09.031Z,98415.33
2019-05-28T18:13:46.345Z,98413.72
2019-05-28T18:16:22.552Z,98412.19
2019-05-28T18:19:00.761Z,98414.70
2019-05-28T18:21:36.185Z,98417.55
2019-05-28T18:24:12.171Z,98431.55
2019-05-28T18:26:48.177Z,98433.73
2019-05-28T18:29:24.292Z,98429.45
2019-05-28T18:32:00.142Z,98429.45
2019-05-28T18:34:36.097Z,98438.41
2019-05-28T18:37:11.973Z,98431.23
2019-05-28T18:39:48.039Z,98438.22
2019-05-28T18:42:24.420Z,98436.88
2019-05-28T18:45:00.374Z,98439.22
2019-05-28T18:47:37.781Z,98443.10
2019-05-28T18:50:14.167Z,98445.78
2019-05-28T18:52:50.409Z,98453.14
2019-05-28T18:55:26.482Z,98452.11
2019-05-28T18:58:02.707Z,98460.47
2019-05-28T19:00:38.990Z,98461.30
2019-05-28T19:03:15.540Z,98463.33
2019-05-28T19:05:51.559Z,98471.18
2019-05-28T19:08:27.612Z,98475.00
2019-05-28T19:11:04.458Z,98480.05
2019-05-28T19:13:40.475Z,98477.30
2019-05-28T19:16:16.501Z,98476.91
2019-05-28T19:18:55.241Z,98507.27
2019-05-28T19:21:30.083Z,98500.67
2019-05-28T19:24:06.043Z,98499.84
2019-05-28T19:26:41.990Z,98501.19
2019-05-28T19:29:17.938Z,98501.92
2019-05-28T19:31:54.427Z,98509.02
2019-05-28T19:34:30.491Z,98513.58
2019-05-28T19:37:06.526Z,98516.99
2019-05-28T19:39:43.219Z,98517.63
2019-05-28T19:42:19.222Z,98518.50
2019-05-28T19:44:56.656Z,98531.20
2019-05-28T19:47:32.847Z,98525.16
2019-05-28T19:50:09.542Z,98531.87
2019-05-28T19:52:45.691Z,98531.75
2019-05-28T19:55:22.156Z,98539.78
2019-05-28T19:57:58.113Z,98541.62
2019-05-28T20:00:34.171Z,98544.23
2019-05-28T20:03:10.342Z,98548.03
2019-05-28T20:05:47.432Z,98549.88
2019-05-28T20:08:23.366Z,98555.86
2019-05-28T20:11:00.450Z,98540.44
2019-05-28T20:13:36.507Z,98552.97
2019-05-28T20:16:13.394Z,98560.03
2019-05-28T20:18:49.453Z,98563.17
2019-05-28T20:21:25.610Z,98563.88
2019-05-28T20:24:02.182Z,98561.91
2019-05-28T20:26:38.651Z,98559.02
2019-05-28T20:29:14.806Z,98561.55
2019-05-28T20:31:50.875Z,98557.95
2019-05-28T20:34:26.926Z,98575.50
2019-05-28T20:37:03.625Z,98572.70
2019-05-28T20:39:39.912Z,98577.33
2019-05-28T20:42:26.940Z,98575.94
2019-05-28T20:44:53.625Z,98575.34
2019-05-28T20:47:29.690Z,98591.25
2019-05-28T20:50:09.625Z,98588.48
2019-05-28T20:52:45.690Z,98603.19
2019-05-28T20:55:21.951Z,98598.15
2019-05-28T20:57:57.904Z,98600.73
2019-05-28T21:00:35.053Z,98603.59
2019-05-28T21:03:11.059Z,98604.21
2019-05-28T21:05:48.419Z,98603.03
2019-05-28T21:08:24.601Z,98603.87
2019-05-28T21:11:00.700Z,98613.72
2019-05-28T21:13:36.615Z,98614.77
2019-05-28T21:16:12.686Z,98629.13
2019-05-28T21:18:49.025Z,98626.73
2019-05-28T21:21:25.110Z,98626.61
2019-05-28T21:24:01.274Z,98631.95
2019-05-28T21:26:37.329Z,98629.78
2019-05-28T21:29:13.284Z,98633.78
2019-05-28T21:31:50.480Z,98635.68
2019-05-28T21:34:26.738Z,98638.63
2019-05-28T21:37:05.661Z,98643.36
2019-05-28T21:39:40.481Z,98646.55
2019-05-28T21:42:16.448Z,98651.77
2019-05-28T21:44:53.955Z,98650.31
2019-05-28T21:47:30.092Z,98655.28
2019-05-28T21:50:08.713Z,98660.28
2019-05-28T21:52:44.667Z,98660.41
2019-05-28T21:55:20.839Z,98661.19
2019-05-28T21:57:57.736Z,98662.86
2019-05-28T22:00:49.540Z,98662.86
2019-05-28T22:03:25.523Z,98667.98
2019-05-28T22:06:01.485Z,98675.16
2019-05-28T22:08:37.786Z,98680.00
2019-05-28T22:11:13.982Z,98676.89
2019-05-28T22:13:50.034Z,98685.03
2019-05-28T22:16:26.105Z,98689.58
2019-05-28T22:19:02.799Z,98694.20
2019-05-28T22:21:38.826Z,98696.88
2019-05-28T22:24:14.892Z,98699.05
2019-05-28T22:26:50.948Z,98707.06
2019-05-28T22:29:26.892Z,98702.22
2019-05-28T22:32:02.962Z,98709.39
2019-05-28T22:34:39.124Z,98712.19
2019-05-28T22:37:15.192Z,98709.29
2019-05-28T22:39:51.251Z,98715.67
2019-05-28T22:42:27.406Z,98710.11
2019-05-28T22:45:05.002Z,98721.89
2019-05-28T22:47:41.266Z,98720.11
2019-05-28T22:50:22.871Z,98717.52
2019-05-28T22:52:55.971Z,98726.37
2019-05-28T22:55:32.088Z,98732.35
2019-05-28T22:58:08.636Z,98732.73
2019-05-28T23:00:45.125Z,98730.79
2019-05-28T23:03:21.087Z,98733.92
2019-05-28T23:05:57.497Z,98730.64
2019-05-28T23:08:34.016Z,98756.62
2019-05-28T23:11:09.988Z,98745.94
2019-05-28T23:13:47.215Z,98746.70
2019-05-28T23:16:23.438Z,98757.73
2019-05-28T23:19:00.424Z,98766.37
2019-05-28T23:21:36.573Z,98771.34
2019-05-28T23:24:12.651Z,98770.61
2019-05-28T23:26:48.696Z,98773.05
2019-05-28T23:29:24.755Z,98777.14
2019-05-28T23:32:01.844Z,98776.75
2019-05-28T23:34:37.887Z,98789.49
2019-05-28T23:37:14.251Z,98777.20
2019-05-28T23:39:51.648Z,98778.44
2019-05-28T23:42:27.603Z,98778.31
2019-05-28T23:45:03.881Z,98788.50
2019-05-28T23:47:39.880Z,98792.89
2019-05-28T23:50:18.181Z,98796.89
2019-05-28T23:52:53.792Z,98791.33
2019-05-28T23:55:29.856Z,98794.64
2019-05-28T23:58:05.866Z,98807.50
